Time;durP1;ratioP1;P1;durP2;ratioP2;P2;SDS_P1;SDS_P2;PMS_P1;PMS_P2;Temp;Humidity;BMP_temperature;BMP_pressure;BME280_temperature;BME280_humidity;BME280_pressure;Samples;Min_cycle;Max_cycle;Signal;HPM_P1;HPM_P2
2023/02/14 00:06:44;;;;;;;16.30;8.52;;;;;;;5.06;69.43;102157.50;30752613;28;97836;-66
2023/02/14 00:21:45;;;;;;;15.65;8.15;;;;;;;5.03;69.43;102160.31;30750379;28;97787;-69
2023/02/14 00:36:46;;;;;;;15.63;7.85;;;;;;;4.98;69.56;102162.34;30749543;28;96714;-62
2023/02/14 00:51:46;;;;;;;13.35;7.45;;;;;;;4.91;69.15;102166.28;30757459;28;96968;-71
2023/02/14 01:06:47;;;;;;;16.50;7.88;;;;;;;4.86;69.13;102157.75;30867948;28;96655;-75
2023/02/14 01:21:47;;;;;;;16.80;8.45;;;;;;;4.80;69.07;102152.78;30865778;28;97418;-63
2023/02/14 01:36:47;;;;;;;15.20;8.30;;;;;;;4.77;68.83;102159.13;30865402;28;97036;-62
2023/02/14 01:51:53;;;;;;;18.35;9.43;;;;;;;4.73;68.82;102149.66;30863645;28;96724;-63
2023/02/14 02:06:58;;;;;;;13.85;7.97;;;;;;;4.74;68.91;102146.06;30825958;28;98007;-68
2023/02/14 02:22:40;;;;;;;12.23;7.10;;;;;;;4.70;68.76;102132.19;30855979;28;97091;-61
2023/02/14 02:37:43;;;;;;;11.68;6.97;;;;;;;4.67;68.37;102123.59;30817719;28;97376;-61
2023/02/14 02:53:02;;;;;;;12.73;7.20;;;;;;;4.65;68.19;102107.84;30737080;28;97290;-68
2023/02/14 03:08:04;;;;;;;13.13;7.38;;;;;;;4.62;67.82;102108.00;30735994;28;96641;-71
2023/02/14 03:23:21;;;;;;;13.20;7.78;;;;;;;4.54;67.70;102097.84;30732937;28;96829;-62
2023/02/14 03:38:21;;;;;;;13.40;8.25;;;;;;;4.59;67.43;102100.22;30733212;28;96697;-62
2023/02/14 03:53:28;;;;;;;10.57;6.03;;;;;;;4.55;67.40;102114.53;30730367;28;96737;-62
2023/02/14 04:08:29;;;;;;;11.23;6.40;;;;;;;4.53;67.22;102130.47;30729354;28;96706;-62
2023/02/14 04:23:29;;;;;;;14.40;8.13;;;;;;;4.46;67.00;102128.25;30728980;28;96890;-62
2023/02/14 04:38:31;;;;;;;15.07;8.82;;;;;;;4.33;67.15;102117.50;30746559;28;97741;-74
2023/02/14 04:53:31;;;;;;;15.00;7.65;;;;;;;4.33;66.98;102125.41;30867029;28;96678;-61
2023/02/14 05:08:32;;;;;;;13.15;6.80;;;;;;;4.34;67.01;102113.94;30863872;28;96654;-62
2023/02/14 05:23:32;;;;;;;16.92;7.10;;;;;;;4.31;66.66;102120.22;30860157;28;97501;-62
2023/02/14 05:38:33;;;;;;;12.13;7.47;;;;;;;4.25;66.67;102120.53;30858792;28;96896;-62
2023/02/14 05:53:34;;;;;;;15.70;8.48;;;;;;;4.14;67.27;102130.81;30858105;28;96653;-62
2023/02/14 06:08:35;;;;;;;15.10;8.23;;;;;;;4.13;67.21;102158.97;30857066;28;96663;-66
2023/02/14 06:23:35;;;;;;;12.88;8.23;;;;;;;4.05;66.74;102162.00;30856326;28;96848;-63
2023/02/14 06:38:35;;;;;;;15.75;8.35;;;;;;;4.24;67.58;102182.16;30852700;28;97164;-65
2023/02/14 06:53:36;;;;;;;14.68;6.97;;;;;;;4.34;66.99;102182.53;30850601;28;97343;-61
2023/02/14 07:08:36;;;;;;;14.00;8.20;;;;;;;4.36;66.63;102183.28;30853513;28;96791;-65
2023/02/14 07:23:37;;;;;;;13.63;7.45;;;;;;;4.35;66.73;102195.63;30844805;28;97332;-65
2023/02/14 07:38:37;;;;;;;11.95;7.10;;;;;;;4.46;66.62;102196.88;30848657;28;96750;-74
2023/02/14 07:53:37;;;;;;;15.15;7.97;;;;;;;4.44;66.96;102198.72;30843803;28;97183;-65
2023/02/14 08:08:38;;;;;;;13.75;8.55;;;;;;;4.53;66.73;102196.44;30855872;28;96750;-66
2023/02/14 08:23:38;;;;;;;18.08;8.90;;;;;;;4.71;66.37;102209.59;30867454;28;96730;-64
2023/02/14 08:38:40;;;;;;;16.05;8.82;;;;;;;4.91;66.07;102205.91;30864899;28;97552;-66
2023/02/14 08:53:42;;;;;;;13.70;8.18;;;;;;;5.19;66.16;102209.66;30861982;28;97250;-67
2023/02/14 09:08:43;;;;;;;12.48;7.75;;;;;;;5.48;65.52;102217.72;30862490;28;97074;-67
2023/02/14 09:23:44;;;;;;;13.40;7.60;;;;;;;5.75;64.69;102224.09;30858365;28;97320;-63
2023/02/14 09:38:45;;;;;;;12.23;7.40;;;;;;;5.87;64.54;102234.88;30860724;28;97247;-63
2023/02/14 09:53:49;;;;;;;17.23;7.90;;;;;;;6.16;63.64;102224.41;30860512;28;96675;-67
2023/02/14 10:09:10;;;;;;;13.07;6.03;;;;;;;6.30;63.31;102227.09;30855184;28;97185;-64
2023/02/14 10:24:20;;;;;;;12.48;7.68;;;;;;;6.18;63.23;102233.09;30854201;28;96793;-64
2023/02/14 10:39:20;;;;;;;10.00;6.47;;;;;;;5.96;61.79;102207.91;30753784;28;96723;-63
2023/02/14 10:54:24;;;;;;;13.95;7.65;;;;;;;5.95;62.58;102214.13;30783623;28;96719;-74
2023/02/14 11:09:25;;;;;;;11.50;6.13;;;;;;;5.90;62.35;102202.97;30835444;28;96798;-77
2023/02/14 11:24:38;;;;;;;12.00;6.88;;;;;;;6.16;61.87;102182.06;30865947;28;97194;-67
2023/02/14 11:39:38;;;;;;;14.73;5.65;;;;;;;6.49;62.20;102173.00;30851323;28;97124;-64
2023/02/14 11:54:40;;;;;;;11.23;6.18;;;;;;;6.87;61.21;102156.53;30859816;28;97846;-70
2023/02/14 12:09:42;;;;;;;12.80;5.87;;;;;;;7.18;59.90;102155.41;30861866;28;97152;-64
2023/02/14 12:24:48;;;;;;;12.30;5.50;;;;;;;6.66;58.93;102146.34;30748814;28;97630;-68
2023/02/14 12:40:03;;;;;;;9.60;5.13;;;;;;;6.82;59.64;102138.28;30751104;28;96733;-66
2023/02/14 12:55:37;;;;;;;7.27;4.70;;;;;;;6.75;57.81;102142.25;30749963;28;97586;-64
2023/02/14 13:11:14;;;;;;;8.40;4.73;;;;;;;6.69;58.51;102118.81;30809725;28;97311;-70
2023/02/14 13:26:37;;;;;;;6.57;4.87;;;;;;;6.73;58.93;102104.44;30805803;28;96871;-68
2023/02/14 13:41:40;;;;;;;7.77;5.07;;;;;;;6.63;58.41;102100.66;30795453;28;97890;-71
2023/02/14 13:56:41;;;;;;;7.47;4.87;;;;;;;6.15;57.70;102111.56;30792945;28;96787;-68
2023/02/14 14:11:41;;;;;;;12.68;7.20;;;;;;;5.95;58.55;102121.53;30757441;28;97354;-72
2023/02/14 14:26:45;;;;;;;8.75;6.22;;;;;;;5.99;58.76;102120.44;30828214;28;97401;-71
2023/02/14 14:41:45;;;;;;;6.77;5.13;;;;;;;5.49;58.86;102122.47;30736229;28;97718;-64
2023/02/14 14:56:55;;;;;;;9.75;5.40;;;;;;;5.14;59.07;102104.22;30806758;28;98175;-74
2023/02/14 15:27:23;;;;;;;6.73;5.03;;;;;;;5.00;59.62;102089.16;30767259;28;97238;-67
2023/02/14 15:42:31;;;;;;;13.37;6.80;;;;;;;4.77;60.28;102079.03;30841598;28;97270;-68
2023/02/14 15:57:33;;;;;;;9.23;6.18;;;;;;;4.45;60.69;102073.75;30800618;28;97128;-71
2023/02/14 16:12:35;;;;;;;21.80;7.28;;;;;;;4.38;61.34;102073.25;30722489;28;96692;-67
2023/02/14 16:27:36;;;;;;;12.20;6.45;;;;;;;4.31;61.51;102085.06;30724668;28;96783;-70
2023/02/14 16:42:39;;;;;;;10.88;6.13;;;;;;;4.20;61.33;102085.66;30743619;28;96657;-71
2023/02/14 16:57:42;;;;;;;9.00;6.47;;;;;;;4.12;61.87;102087.84;30793105;28;97377;-62
2023/02/14 17:12:45;;;;;;;12.27;7.67;;;;;;;4.09;61.85;102085.34;30791637;28;97010;-70
2023/02/14 17:27:45;;;;;;;20.13;11.13;;;;;;;4.10;62.21;102089.69;30781845;28;97522;-67
2023/02/14 17:42:46;;;;;;;11.73;7.43;;;;;;;4.01;62.07;102083.97;30781147;28;97136;-62
2023/02/14 17:57:51;;;;;;;13.57;7.97;;;;;;;3.95;62.36;102084.31;30781130;28;97053;-71
2023/02/14 18:12:51;;;;;;;12.70;7.13;;;;;;;3.71;62.91;102084.63;30765053;28;97231;-73
2023/02/14 18:27:52;;;;;;;12.70;9.23;;;;;;;3.68;63.23;102063.72;30791324;28;96823;-62
2023/02/14 18:42:53;;;;;;;17.15;10.00;;;;;;;3.61;63.42;102067.59;30798877;28;97276;-70
2023/02/14 18:57:53;;;;;;;10.35;7.55;;;;;;;3.47;63.20;102064.81;30849709;28;96938;-62
2023/02/14 19:12:54;;;;;;;14.50;6.53;;;;;;;3.30;63.95;102052.50;30841813;28;97001;-66
2023/02/14 19:27:55;;;;;;;17.52;9.73;;;;;;;3.15;64.12;102043.59;30848310;28;97570;-64
2023/02/14 19:42:55;;;;;;;24.17;11.80;;;;;;;3.03;64.60;102043.28;30754225;28;97515;-68
2023/02/14 19:57:56;;;;;;;29.85;14.07;;;;;;;2.85;64.40;102037.09;30785392;28;97201;-66
2023/02/14 20:12:56;;;;;;;24.98;13.73;;;;;;;2.49;65.01;102030.06;30775796;28;97722;-64
2023/02/14 20:27:57;;;;;;;20.65;11.95;;;;;;;2.23;65.52;102027.78;30742532;28;96851;-71
2023/02/14 20:42:57;;;;;;;21.83;11.82;;;;;;;2.08;65.95;102013.56;30746036;28;96586;-64
2023/02/14 20:58:01;;;;;;;22.50;12.10;;;;;;;1.96;66.39;102010.56;30745605;28;97219;-69
2023/02/14 21:13:01;;;;;;;25.10;11.57;;;;;;;1.70;67.18;102009.13;30744083;28;97096;-69
2023/02/14 21:28:02;;;;;;;23.70;13.15;;;;;;;1.21;67.20;102004.22;30742597;28;97369;-68
2023/02/14 21:43:02;;;;;;;25.77;12.45;;;;;;;0.93;67.92;102000.13;30741416;28;97266;-69
2023/02/14 21:58:03;;;;;;;25.45;14.88;;;;;;;0.58;68.15;101972.72;30754400;28;97016;-71
2023/02/14 22:13:03;;;;;;;28.35;14.27;;;;;;;0.37;69.53;101959.53;30740593;28;96526;-72
2023/02/14 22:28:04;;;;;;;23.25;12.15;;;;;;;0.17;70.07;101958.53;30733824;28;97493;-64
2023/02/14 22:43:04;;;;;;;19.33;11.05;;;;;;;-0.04;70.34;101957.59;30728494;28;96692;-68
2023/02/14 22:58:05;;;;;;;26.98;12.60;;;;;;;-0.20;70.83;101943.38;30728388;28;96813;-69
